createdAt,value
2022-11-08T00:01:28.086Z,97809.34
2022-11-08T00:03:58.507Z,97807.94
2022-11-08T00:06:41.413Z,97806.88
2022-11-08T00:09:24.224Z,97814.06
2022-11-08T00:12:06.816Z,97799.91
2022-11-08T00:14:37.006Z,97798.00
2022-11-08T00:17:09.893Z,97799.44
2022-11-08T00:19:40.043Z,97799.75
2022-11-08T00:22:10.256Z,97795.72
2022-11-08T00:24:40.839Z,97798.75
2022-11-08T00:27:14.035Z,97792.19
2022-11-08T00:29:44.265Z,97798.69
2022-11-08T00:32:20.203Z,97796.88
2022-11-08T00:34:51.120Z,97790.25
2022-11-08T00:37:23.395Z,97799.34
2022-11-08T00:39:53.497Z,97800.88
2022-11-08T00:42:23.572Z,97792.00
2022-11-08T00:44:53.597Z,97790.25
2022-11-08T00:47:26.262Z,97797.56
2022-11-08T00:49:56.427Z,97807.50
2022-11-08T00:52:26.612Z,97795.63
2022-11-08T00:54:56.642Z,97791.81
2022-11-08T00:57:41.170Z,97787.59
2022-11-08T01:00:18.203Z,97788.00
2022-11-08T01:03:11.192Z,97786.75
2022-11-08T01:05:41.750Z,97790.09
2022-11-08T01:08:13.284Z,97787.78
2022-11-08T01:10:44.870Z,97776.50
2022-11-08T01:13:15.907Z,97772.28
2022-11-08T01:15:47.127Z,97776.09
2022-11-08T01:18:21.056Z,97768.34
2022-11-08T01:20:53.110Z,97771.31
2022-11-08T01:23:23.326Z,97765.78
2022-11-08T01:25:53.403Z,97767.59
2022-11-08T01:28:23.496Z,97761.75
2022-11-08T01:30:53.496Z,97770.28
2022-11-08T01:33:26.353Z,97761.66
2022-11-08T01:35:56.532Z,97760.91
2022-11-08T01:38:26.772Z,97759.94
2022-11-08T01:40:57.206Z,97773.63
2022-11-08T01:43:46.251Z,97771.06
2022-11-08T01:46:44.770Z,97768.75
2022-11-08T01:49:41.196Z,97762.22
2022-11-08T01:52:24.602Z,97757.19
2022-11-08T01:55:08.499Z,97753.44
2022-11-08T01:57:48.814Z,97753.25
2022-11-08T02:00:20.194Z,97749.88
2022-11-08T02:02:58.209Z,97745.88
2022-11-08T02:05:33.219Z,97735.44
2022-11-08T02:08:10.302Z,97737.00
2022-11-08T02:10:43.580Z,97734.41
2022-11-08T02:13:18.954Z,97727.44
2022-11-08T02:15:49.456Z,97727.13
2022-11-08T02:18:22.030Z,97731.91
2022-11-08T02:21:07.762Z,97728.66
2022-11-08T02:23:49.807Z,97730.59
2022-11-08T02:26:22.784Z,97734.31
2022-11-08T02:28:53.783Z,97734.22
2022-11-08T02:31:23.899Z,97734.22
2022-11-08T02:33:54.261Z,97734.53
2022-11-08T02:36:27.629Z,97732.69
2022-11-08T02:39:01.172Z,97731.97
2022-11-08T02:41:31.255Z,97734.91
2022-11-08T02:44:02.471Z,97739.59
2022-11-08T02:46:32.897Z,97737.59
2022-11-08T02:49:03.134Z,97729.56
2022-11-08T02:51:33.208Z,97727.56
2022-11-08T02:54:06.167Z,97733.09
2022-11-08T02:56:36.433Z,97737.88
2022-11-08T02:59:06.716Z,97727.75
2022-11-08T03:01:39.896Z,97737.78
2022-11-08T03:04:10.188Z,97728.13
2022-11-08T03:06:40.485Z,97728.88
2022-11-08T03:09:13.985Z,97737.72
2022-11-08T03:11:44.386Z,97732.16
2022-11-08T03:14:14.547Z,97734.06
2022-11-08T03:16:44.613Z,97732.53
2022-11-08T03:19:15.201Z,97735.63
2022-11-08T03:21:45.336Z,97738.66
2022-11-08T03:24:18.258Z,97742.19
2022-11-08T03:26:48.482Z,97733.97
2022-11-08T03:29:18.555Z,97734.25
2022-11-08T03:31:48.688Z,97736.56
2022-11-08T03:34:18.863Z,97735.59
2022-11-08T03:36:48.977Z,97737.41
2022-11-08T03:39:21.732Z,97728.88
2022-11-08T03:41:51.892Z,97736.34
2022-11-08T03:44:22.016Z,97733.28
2022-11-08T03:46:52.178Z,97724.97
2022-11-08T03:49:22.251Z,97723.72
2022-11-08T03:51:52.418Z,97722.19
2022-11-08T03:54:25.140Z,97717.22
2022-11-08T03:56:55.656Z,97717.50
2022-11-08T03:59:25.805Z,97724.66
2022-11-08T04:01:55.976Z,97713.28
2022-11-08T04:04:26.331Z,97719.03
2022-11-08T04:06:56.323Z,97719.81
2022-11-08T04:09:29.226Z,97718.56
2022-11-08T04:12:11.820Z,97724.50
2022-11-08T04:14:54.437Z,97721.63
2022-11-08T04:17:45.165Z,97722.00
2022-11-08T04:20:27.788Z,97721.06
2022-11-08T04:22:57.896Z,97724.03
2022-11-08T04:25:34.935Z,97719.63
2022-11-08T04:28:05.941Z,97723.66
2022-11-08T04:30:37.227Z,97728.63
2022-11-08T04:33:08.576Z,97729.59
2022-11-08T04:35:38.674Z,97732.25
2022-11-08T04:38:08.891Z,97729.69
2022-11-08T04:40:41.630Z,97726.91
2022-11-08T04:43:11.988Z,97717.44
2022-11-08T04:45:42.680Z,97724.41
2022-11-08T04:48:13.022Z,97731.31
2022-11-08T04:50:43.419Z,97718.59
2022-11-08T04:53:13.536Z,97724.13
2022-11-08T04:55:46.203Z,97722.41
2022-11-08T04:58:16.898Z,97716.56
2022-11-08T05:00:47.298Z,97725.31
2022-11-08T05:03:17.402Z,97716.44
2022-11-08T05:05:47.436Z,97720.56
2022-11-08T05:08:17.827Z,97711.88
2022-11-08T05:10:50.795Z,97715.31
2022-11-08T05:13:20.930Z,97713.78
2022-11-08T05:15:50.925Z,97717.03
2022-11-08T05:18:21.079Z,97709.28
2022-11-08T05:21:09.720Z,97717.78
2022-11-08T05:23:39.906Z,97711.28
2022-11-08T05:26:12.725Z,97713.56
2022-11-08T05:28:43.189Z,97709.47
2022-11-08T05:31:17.125Z,97713.19
2022-11-08T05:33:47.722Z,97714.91
2022-11-08T05:36:19.269Z,97715.03
2022-11-08T05:38:49.696Z,97715.78
2022-11-08T05:41:25.585Z,97714.72
2022-11-08T05:43:57.528Z,97714.44
2022-11-08T05:46:30.308Z,97712.16
2022-11-08T05:49:00.504Z,97718.34
2022-11-08T05:51:30.601Z,97717.13
2022-11-08T05:54:00.701Z,97714.03
2022-11-08T05:56:33.398Z,97719.13
2022-11-08T05:59:03.724Z,97706.50
2022-11-08T06:01:34.180Z,97709.78
2022-11-08T06:04:04.368Z,97709.78
2022-11-08T06:06:34.463Z,97706.34
2022-11-08T06:09:04.640Z,97702.97
2022-11-08T06:11:37.580Z,97710.13
2022-11-08T06:14:07.802Z,97708.44
2022-11-08T06:16:37.854Z,97711.88
2022-11-08T06:19:08.117Z,97708.66
2022-11-08T06:21:38.800Z,97704.63
2022-11-08T06:24:10.470Z,97703.31
2022-11-08T06:26:43.146Z,97700.03
2022-11-08T06:29:13.623Z,97701.88
2022-11-08T06:31:55.207Z,97696.31
2022-11-08T06:34:25.440Z,97706.44
2022-11-08T06:36:58.796Z,97703.97
2022-11-08T06:39:29.011Z,97697.34
2022-11-08T06:42:01.874Z,97697.63
2022-11-08T06:44:31.973Z,97693.91
2022-11-08T06:47:02.155Z,97702.88
2022-11-08T06:49:32.160Z,97689.66
2022-11-08T06:52:02.392Z,97706.47
2022-11-08T06:54:32.958Z,97702.78
2022-11-08T06:57:05.910Z,97703.38
2022-11-08T06:59:36.131Z,97701.22
2022-11-08T07:02:06.342Z,97693.34
2022-11-08T07:04:36.686Z,97692.84
2022-11-08T07:07:06.959Z,97683.97
2022-11-08T07:09:37.396Z,97678.13
2022-11-08T07:12:10.212Z,97686.09
2022-11-08T07:14:40.385Z,97687.84
2022-11-08T07:17:10.652Z,97685.09
2022-11-08T07:19:40.772Z,97688.94
2022-11-08T07:22:10.938Z,97692.72
2022-11-08T07:24:41.251Z,97685.59
2022-11-08T07:27:13.997Z,97680.84
2022-11-08T07:29:44.215Z,97678.78
2022-11-08T07:32:14.331Z,97681.06
2022-11-08T07:34:44.444Z,97678.00
2022-11-08T07:37:14.614Z,97682.38
2022-11-08T07:39:44.616Z,97684.44
2022-11-08T07:42:17.400Z,97688.53
2022-11-08T07:44:49.157Z,97687.81
2022-11-08T07:47:19.287Z,97686.69
2022-11-08T07:49:49.340Z,97689.59
2022-11-08T07:52:19.528Z,97684.34
2022-11-08T07:54:49.727Z,97690.50
2022-11-08T07:57:22.660Z,97685.03
2022-11-08T07:59:52.770Z,97690.72
2022-11-08T08:02:24.149Z,97679.88
2022-11-08T08:04:54.400Z,97684.53
2022-11-08T08:07:24.448Z,97675.81
2022-11-08T08:09:54.576Z,97684.94
2022-11-08T08:12:27.436Z,97679.97
2022-11-08T08:14:57.565Z,97680.66
2022-11-08T08:17:27.874Z,97682.88
2022-11-08T08:19:58.019Z,97684.19
2022-11-08T08:22:28.174Z,97683.69
2022-11-08T08:25:02.739Z,97679.75
2022-11-08T08:27:35.875Z,97681.03
2022-11-08T08:30:06.469Z,97685.16
2022-11-08T08:32:37.204Z,97686.16
2022-11-08T08:35:08.285Z,97678.78
2022-11-08T08:37:38.568Z,97679.19
2022-11-08T08:40:11.150Z,97669.50
2022-11-08T08:42:43.876Z,97667.09
2022-11-08T08:45:15.229Z,97658.72
2022-11-08T08:47:45.555Z,97669.50
2022-11-08T08:50:15.698Z,97658.66
2022-11-08T08:52:45.996Z,97659.84
2022-11-08T08:55:16.350Z,97651.97
2022-11-08T08:57:52.197Z,97648.00
2022-11-08T09:03:14.192Z,97644.84
2022-11-08T09:05:46.867Z,97651.66
2022-11-08T09:08:18.101Z,97638.16
2022-11-08T09:10:48.193Z,97635.09
2022-11-08T09:13:21.177Z,97647.28
2022-11-08T09:15:51.458Z,97647.13
2022-11-08T09:18:22.310Z,97644.25
2022-11-08T09:20:52.475Z,97645.22
2022-11-08T09:23:22.653Z,97643.41
2022-11-08T09:25:52.770Z,97639.13
2022-11-08T09:28:30.733Z,97645.00
2022-11-08T09:31:04.751Z,97644.63
2022-11-08T09:33:35.436Z,97644.47
2022-11-08T09:36:07.035Z,97644.66
2022-11-08T09:38:37.544Z,97640.94
2022-11-08T09:41:41.573Z,97640.06
2022-11-08T09:44:41.049Z,97636.31
2022-11-08T09:47:22.470Z,97639.75
2022-11-08T09:50:02.822Z,97629.63
2022-11-08T09:52:35.911Z,97632.94
2022-11-08T09:55:20.921Z,97632.31
2022-11-08T09:58:07.235Z,97627.13
2022-11-08T10:00:43.459Z,97604.44
2022-11-08T10:03:18.411Z,97618.13
2022-11-08T10:06:05.118Z,97618.38
2022-11-08T10:08:40.922Z,97621.56
2022-11-08T10:11:25.812Z,97621.03
2022-11-08T10:14:12.669Z,97612.34
2022-11-08T10:16:53.862Z,97607.53
2022-11-08T10:19:52.218Z,97604.16
2022-11-08T10:22:33.884Z,97616.53
2022-11-08T10:25:06.216Z,97613.25
2022-11-08T10:27:40.630Z,97605.16
2022-11-08T10:30:21.629Z,97598.66
2022-11-08T10:32:57.896Z,97603.41
2022-11-08T10:35:33.161Z,97600.41
2022-11-08T10:38:04.840Z,97596.69
2022-11-08T10:40:45.748Z,97600.50
2022-11-08T10:43:30.008Z,97598.63
2022-11-08T10:46:00.145Z,97578.69
2022-11-08T10:48:40.237Z,97581.09
2022-11-08T10:51:11.278Z,97574.53
2022-11-08T10:53:48.882Z,97576.53
2022-11-08T10:56:19.740Z,97563.75
2022-11-08T10:58:49.819Z,97562.88
2022-11-08T11:01:23.192Z,97566.25
2022-11-08T11:03:56.724Z,97566.53
2022-11-08T11:06:30.757Z,97574.88
2022-11-08T11:09:04.310Z,97564.00
2022-11-08T11:11:40.930Z,97554.59
2022-11-08T11:14:21.752Z,97563.09
2022-11-08T11:17:00.259Z,97563.09
2022-11-08T11:19:33.824Z,97553.13
2022-11-08T11:22:07.962Z,97558.34
2022-11-08T11:24:39.267Z,97560.41
2022-11-08T11:27:12.388Z,97556.88
2022-11-08T11:29:42.503Z,97545.50
2022-11-08T11:32:27.256Z,97548.41
2022-11-08T11:35:02.926Z,97551.31
2022-11-08T11:37:42.222Z,97538.31
2022-11-08T11:40:24.562Z,97543.19
2022-11-08T11:43:05.842Z,97539.56
2022-11-08T11:45:45.282Z,97535.75
2022-11-08T11:48:20.835Z,97525.97
2022-11-08T11:50:54.512Z,97528.47
2022-11-08T11:53:28.571Z,97535.34
2022-11-08T11:56:33.967Z,97538.19
2022-11-08T12:03:18.331Z,97529.72
2022-11-08T12:06:07.905Z,97534.16
2022-11-08T12:08:57.095Z,97527.06
2022-11-08T12:11:43.770Z,97517.78
2022-11-08T12:14:35.023Z,97519.16
2022-11-08T12:17:23.848Z,97524.44
2022-11-08T12:20:10.088Z,97511.84
2022-11-08T12:22:57.517Z,97507.94
2022-11-08T12:25:35.538Z,97498.75
2022-11-08T12:28:26.399Z,97490.25
2022-11-08T12:31:04.870Z,97491.97
2022-11-08T12:33:47.158Z,97494.97
2022-11-08T12:36:27.187Z,97490.06
2022-11-08T12:39:22.191Z,97493.25
2022-11-08T12:42:10.586Z,97478.63
2022-11-08T12:45:21.469Z,97492.44
2022-11-08T12:48:00.063Z,97484.94
2022-11-08T12:50:38.988Z,97479.72
2022-11-08T12:53:51.637Z,97479.59
2022-11-08T12:56:29.936Z,97470.72
2022-11-08T12:59:00.547Z,97472.88
2022-11-08T13:01:30.917Z,97466.44
2022-11-08T13:04:51.487Z,97464.78
2022-11-08T13:07:41.222Z,97454.53
2022-11-08T13:10:24.779Z,97460.19
2022-11-08T13:13:17.547Z,97460.38
2022-11-08T13:16:11.660Z,97462.09
2022-11-08T13:18:50.522Z,97459.06
2022-11-08T13:21:39.920Z,97453.81
2022-11-08T13:27:50.439Z,97454.38
2022-11-08T13:30:41.445Z,97452.13
2022-11-08T13:33:29.169Z,97451.63
2022-11-08T13:36:20.860Z,97448.47
2022-11-08T13:39:01.938Z,97439.88
2022-11-08T13:41:35.013Z,97435.66
2022-11-08T13:44:55.249Z,97441.94
2022-11-08T13:48:02.193Z,97429.94
2022-11-08T13:50:57.722Z,97427.47
2022-11-08T13:53:47.474Z,97429.84
2022-11-08T13:56:44.166Z,97422.38
2022-11-08T14:00:01.926Z,97428.41
2022-11-08T14:02:45.399Z,97432.31
2022-11-08T14:05:51.753Z,97425.41
2022-11-08T14:08:31.543Z,97427.31
2022-11-08T14:11:33.517Z,97436.63
2022-11-08T14:14:25.677Z,97436.78
2022-11-08T14:17:23.186Z,97445.78
2022-11-08T14:19:54.740Z,97451.47
2022-11-08T14:22:32.123Z,97452.13
2022-11-08T14:25:16.647Z,97457.75
2022-11-08T14:27:46.885Z,97444.25
2022-11-08T14:30:19.917Z,97445.66
2022-11-08T14:32:51.099Z,97447.59
2022-11-08T14:35:28.454Z,97444.47
2022-11-08T14:38:01.301Z,97439.06
2022-11-08T14:40:32.703Z,97443.59
2022-11-08T14:43:02.872Z,97453.06
2022-11-08T14:45:33.006Z,97447.63
2022-11-08T14:48:07.139Z,97442.50
2022-11-08T14:50:38.113Z,97424.44
2022-11-08T14:53:27.698Z,97428.94
2022-11-08T14:56:15.041Z,97436.94
2022-11-08T14:58:45.650Z,97434.50
2022-11-08T15:01:18.042Z,97442.59
2022-11-08T15:03:54.448Z,97434.78
2022-11-08T15:06:26.141Z,97442.97
2022-11-08T15:08:59.517Z,97437.13
2022-11-08T15:11:33.824Z,97446.00
2022-11-08T15:14:07.017Z,97448.16
2022-11-08T15:16:45.527Z,97451.75
2022-11-08T15:19:33.177Z,97449.25
2022-11-08T15:22:06.374Z,97457.03
2022-11-08T15:24:42.732Z,97446.22
2022-11-08T15:27:19.477Z,97450.66
2022-11-08T15:29:55.402Z,97441.75
2022-11-08T15:32:26.042Z,97439.03
2022-11-08T15:34:58.731Z,97440.31
2022-11-08T15:37:34.161Z,97433.53
2022-11-08T15:40:10.438Z,97439.50
2022-11-08T15:42:47.242Z,97434.19
2022-11-08T15:45:28.999Z,97443.22
2022-11-08T15:48:14.577Z,97444.03
2022-11-08T15:50:44.783Z,97431.63
2022-11-08T15:53:14.860Z,97429.59
2022-11-08T15:55:53.140Z,97428.69
2022-11-08T15:58:29.789Z,97425.94
2022-11-08T16:01:02.371Z,97435.66
2022-11-08T16:03:34.092Z,97430.63
2022-11-08T16:06:04.376Z,97435.28
2022-11-08T16:08:34.454Z,97433.00
2022-11-08T16:11:07.661Z,97430.78
2022-11-08T16:13:42.042Z,97425.97
2022-11-08T16:16:16.735Z,97422.97
2022-11-08T16:18:47.338Z,97430.06
2022-11-08T16:21:18.271Z,97424.00
2022-11-08T16:23:48.273Z,97415.91
2022-11-08T16:26:21.650Z,97421.50
2022-11-08T16:28:51.806Z,97413.91
2022-11-08T16:31:21.809Z,97413.16
2022-11-08T16:33:54.095Z,97423.53
2022-11-08T16:36:27.778Z,97420.00
2022-11-08T16:38:59.988Z,97427.09
2022-11-08T16:41:33.005Z,97425.06
2022-11-08T16:44:03.127Z,97425.56
2022-11-08T16:46:33.236Z,97430.88
2022-11-08T16:49:03.398Z,97439.00
2022-11-08T16:51:33.458Z,97439.50
2022-11-08T16:54:05.281Z,97448.13
2022-11-08T16:56:37.966Z,97444.56
2022-11-08T16:59:08.306Z,97449.66
2022-11-08T17:01:38.439Z,97448.13
2022-11-08T17:04:08.711Z,97449.41
2022-11-08T17:06:38.833Z,97451.69
2022-11-08T17:09:09.441Z,97456.28
2022-11-08T17:11:42.099Z,97448.91
2022-11-08T17:14:13.990Z,97459.56
2022-11-08T17:16:44.254Z,97454.50
2022-11-08T17:19:14.401Z,97451.22
2022-11-08T17:21:45.692Z,97457.78
2022-11-08T17:24:21.669Z,97461.59
2022-11-08T17:26:55.472Z,97460.31
2022-11-08T17:29:25.851Z,97463.63
2022-11-08T17:31:55.999Z,97456.53
2022-11-08T17:34:26.048Z,97464.63
2022-11-08T17:36:56.104Z,97466.91
2022-11-08T17:39:26.300Z,97458.81
2022-11-08T17:41:58.911Z,97449.41
2022-11-08T17:44:29.600Z,97450.44
2022-11-08T17:46:59.788Z,97451.72
2022-11-08T17:49:31.039Z,97461.59
2022-11-08T17:52:01.415Z,97456.50
2022-11-08T17:54:31.679Z,97451.94
2022-11-08T17:57:04.662Z,97448.66
2022-11-08T17:59:34.870Z,97443.09
2022-11-08T18:02:05.081Z,97449.16
2022-11-08T18:04:35.391Z,97453.72
2022-11-08T18:07:05.596Z,97459.31
2022-11-08T18:09:35.858Z,97458.03
2022-11-08T18:12:09.129Z,97453.22
2022-11-08T18:14:39.332Z,97450.19
2022-11-08T18:17:09.452Z,97447.91
2022-11-08T18:19:39.529Z,97455.00
2022-11-08T18:22:09.582Z,97456.53
2022-11-08T18:24:39.615Z,97461.34
2022-11-08T18:27:14.676Z,97466.91
2022-11-08T18:29:44.801Z,97458.03
2022-11-08T18:32:17.284Z,97459.81
2022-11-08T18:34:47.455Z,97468.16
2022-11-08T18:37:17.546Z,97455.50
2022-11-08T18:39:47.763Z,97456.03
2022-11-08T18:42:20.394Z,97452.72
2022-11-08T18:44:50.577Z,97455.50
2022-11-08T18:47:20.656Z,97449.19
2022-11-08T18:49:50.761Z,97447.41
2022-11-08T18:52:20.964Z,97450.44
2022-11-08T18:54:51.192Z,97447.41
2022-11-08T18:57:24.038Z,97444.88
2022-11-08T18:59:58.367Z,97448.94
2022-11-08T19:02:31.046Z,97447.91
2022-11-08T19:05:01.182Z,97440.81
2022-11-08T19:07:31.364Z,97443.06
2022-11-08T19:10:01.440Z,97436.50
2022-11-08T19:12:34.231Z,97443.84
2022-11-08T19:15:04.425Z,97442.06
2022-11-08T19:17:36.415Z,97442.31
2022-11-08T19:20:08.010Z,97441.03
2022-11-08T19:22:38.192Z,97446.09
2022-11-08T19:25:09.024Z,97442.06
2022-11-08T19:27:41.540Z,97450.44
2022-11-08T19:30:13.097Z,97437.50
2022-11-08T19:32:45.715Z,97444.59
2022-11-08T19:35:16.671Z,97449.66
2022-11-08T19:37:46.528Z,97445.09
2022-11-08T19:40:16.718Z,97439.28
2022-11-08T19:42:49.426Z,97438.00
2022-11-08T19:45:19.714Z,97443.31
2022-11-08T19:47:51.704Z,97442.81
2022-11-08T19:50:21.970Z,97445.09
2022-11-08T19:52:52.853Z,97451.16
2022-11-08T19:55:22.969Z,97452.22
2022-11-08T19:57:55.605Z,97453.72
2022-11-08T20:00:25.791Z,97454.97
2022-11-08T20:02:56.115Z,97458.75
2022-11-08T20:05:26.903Z,97463.84
2022-11-08T20:07:57.142Z,97462.31
2022-11-08T20:10:27.691Z,97458.00
2022-11-08T20:13:00.637Z,97460.25
2022-11-08T20:15:30.983Z,97454.16
2022-11-08T20:18:01.405Z,97454.91
2022-11-08T20:20:32.188Z,97449.03
2022-11-08T20:23:02.367Z,97456.66
2022-11-08T20:25:32.469Z,97450.53
2022-11-08T20:28:05.363Z,97446.75
2022-11-08T20:30:35.729Z,97448.28
2022-11-08T20:33:06.356Z,97453.34
2022-11-08T20:35:38.757Z,97442.44
2022-11-08T20:38:08.884Z,97446.75
2022-11-08T20:40:41.200Z,97446.28
2022-11-08T20:43:14.041Z,97446.31
2022-11-08T20:45:44.179Z,97443.28
2022-11-08T20:48:14.328Z,97443.78
2022-11-08T20:50:44.587Z,97439.75
2022-11-08T20:53:14.761Z,97436.19
2022-11-08T20:55:44.814Z,97444.78
2022-11-08T20:58:17.893Z,97433.38
2022-11-08T21:00:58.164Z,97433.38
2022-11-08T21:03:30.404Z,97431.34
2022-11-08T21:06:03.777Z,97437.41
2022-11-08T21:11:24.838Z,97431.34
2022-11-08T21:13:57.635Z,97436.66
2022-11-08T21:16:30.471Z,97432.59
2022-11-08T21:19:01.104Z,97439.94
2022-11-08T21:21:31.769Z,97431.06
2022-11-08T21:24:01.916Z,97430.84
2022-11-08T21:26:36.473Z,97431.84
2022-11-08T21:29:10.284Z,97420.69
2022-11-08T21:31:40.490Z,97417.88
2022-11-08T21:34:12.006Z,97422.69
2022-11-08T21:36:42.100Z,97423.44
2022-11-08T21:39:12.306Z,97422.69
2022-11-08T21:41:42.531Z,97416.03
2022-11-08T21:44:15.357Z,97420.59
2022-11-08T21:46:45.691Z,97411.19
2022-11-08T21:49:16.466Z,97415.53
2022-11-08T21:51:46.545Z,97410.19
2022-11-08T21:54:16.584Z,97417.78
2022-11-08T21:56:46.660Z,97413.75
2022-11-08T21:59:19.359Z,97410.94
2022-11-08T22:01:49.488Z,97400.81
2022-11-08T22:04:19.498Z,97410.47
2022-11-08T22:06:49.653Z,97417.06
2022-11-08T22:09:19.741Z,97420.84
2022-11-08T22:11:49.783Z,97421.63
2022-11-08T22:14:25.625Z,97408.94
2022-11-08T22:16:55.732Z,97410.47
2022-11-08T22:19:25.702Z,97419.81
2022-11-08T22:21:55.791Z,97415.00
2022-11-08T22:24:25.927Z,97415.50
2022-11-08T22:26:56.239Z,97414.22
2022-11-08T22:29:29.015Z,97409.66
2022-11-08T22:31:59.133Z,97410.41
2022-11-08T22:34:29.158Z,97398.97
2022-11-08T22:36:59.302Z,97398.97
2022-11-08T22:39:29.389Z,97393.91
2022-11-08T22:41:59.392Z,97403.31
2022-11-08T22:44:32.091Z,97399.25
2022-11-08T22:47:02.192Z,97410.13
2022-11-08T22:49:32.305Z,97404.03
2022-11-08T22:52:02.331Z,97404.81
2022-11-08T22:54:32.389Z,97403.78
2022-11-08T22:57:04.262Z,97398.72
2022-11-08T22:59:37.016Z,97399.94
2022-11-08T23:02:07.191Z,97393.59
2022-11-08T23:04:37.364Z,97403.25
2022-11-08T23:07:07.484Z,97401.72
2022-11-08T23:09:37.555Z,97410.06
2022-11-08T23:12:20.246Z,97407.56
2022-11-08T23:15:20.181Z,97397.66
2022-11-08T23:17:50.289Z,97412.41
2022-11-08T23:20:33.050Z,97404.53
2022-11-08T23:23:15.734Z,97395.38
2022-11-08T23:25:46.115Z,97399.47
2022-11-08T23:28:28.640Z,97402.47
2022-11-08T23:31:32.277Z,97397.19
2022-11-08T23:34:02.484Z,97411.44
2022-11-08T23:36:32.693Z,97405.38
2022-11-08T23:39:02.766Z,97402.34
2022-11-08T23:41:45.289Z,97415.78
2022-11-08T23:44:27.877Z,97420.13
2022-11-08T23:47:02.742Z,97423.44
2022-11-08T23:49:32.895Z,97416.88
2022-11-08T23:52:02.931Z,97414.09
2022-11-08T23:54:32.952Z,97413.13
2022-11-08T23:57:02.997Z,97411.63
2022-11-08T23:59:33.324Z,97407.03
